Terminal Aerodrome Forecast
Issued by NWS Louisville, KY

Home | Current Version | Previous Version | Text Only | Print | Product List | Glossary On
Versions: 1 2 3 4 5 6 7 8 9 10 11 12 13 14 15 16 17 18
000
FTUS43 KLMK 171728
TAFSDF
TAF
KSDF 171728Z 1718/1824 29007KT 6SM -SN BKN015
     FM171930 28008KT P6SM SKC
     FM180000 25007KT P6SM FEW140
     FM180400 23005KT P6SM FEW120
     FM181000 21007KT P6SM SKC=

USA.gov is the U.S. government's official web portal to all federal, state and local government web resources and services.